Flight Track Log - Related Links

Times and Time Zones

All times are in EST time to prevent confusion due to time zone crossing. See the N609C flight status page for this flight to view local times or setup timezone preferences in your user account.

Time Position Orientation Groundspeed Altitude Reporting Facility
EST Latitude Longitude Course Direction KTS MPH feet Rate Location/Type
Thu 03:52:17 PM 41.4608 -85.4181 256° West 101 116 5,900  Level Chicago Center
Thu 03:53:19 PM 41.4517 -85.4647 255° West 106 122 6,600 629 Climbing Chicago Center
Thu 03:54:21 PM 41.4456 -85.5022 258° West 105 121 7,200 581 Climbing Chicago Center
Thu 03:55:00 PM 41.5757 -85.4599 305° West  Level Estimated
Thu 03:55:23 PM 41.4389 -85.5392 256° West 103 119 7,800  Level Chicago Center
Thu 03:56:00 PM 41.5928 -85.4932 305° West  Level Estimated
Thu 03:56:25 PM 41.4328 -85.5767 258° West 103 119 8,100  Level Chicago Center
Thu 03:57:27 PM 41.4250 -85.6189 256° West 115 132 8,100  Level Chicago Center
Thu 03:58:29 PM 41.4167 -85.6675 257° West 125 144 8,100  Level Chicago Center
Thu 03:59:31 PM 41.4072 -85.7233 257° West 129 148 8,100  Level Chicago Center
Thu 04:00:33 PM 41.3972 -85.7725 255° West 135 155 8,100  Level Chicago Center
Thu 04:01:36 PM 41.3897 -85.8206 258° West 133 153 8,100 -48 Level Chicago Center
Thu 04:02:38 PM 41.3806 -85.8681 256° West 134 154 8,000 -48 Descending Chicago Center
Thu 04:03:40 PM 41.3717 -85.9172 256° West 135 155 8,000  Level Chicago Center
Thu 04:04:42 PM 41.3628 -85.9664 256° West 136 157 8,000  Level Chicago Center
Thu 04:05:44 PM 41.3514 -86.0247 255° West 137 158 8,000  Level Chicago Center
Thu 04:06:46 PM 41.3436 -86.0739 258° West 137 158 8,000  Level Chicago Center
Thu 04:07:48 PM 41.3347 -86.1239 257° West 138 159 8,000  Level Chicago Center
Thu 04:08:50 PM 41.3250 -86.1733 255° West 139 160 8,000  Level Chicago Center
Thu 04:09:52 PM 41.3158 -86.2208 256° West 134 154 8,000  Level Chicago Center
Thu 04:10:54 PM 41.3069 -86.2700 256° West 135 155 8,000  Level Chicago Center
Thu 04:11:57 PM 41.2967 -86.3289 257° West 137 158 8,000  Level Chicago Center
Thu 04:12:59 PM 41.2878 -86.3781 256° West 137 158 8,000  Level Chicago Center
Thu 04:14:01 PM 41.2778 -86.4269 255° West 137 158 8,000  Level Chicago Center
Thu 04:15:03 PM 41.2689 -86.4756 256° West 136 157 8,000  Level Chicago Center
Thu 04:16:05 PM 41.2611 -86.5244 258° West 137 158 8,000  Level Chicago Center
Thu 04:17:07 PM 41.2517 -86.5731 256° West 136 157 8,000  Level Chicago Center
Thu 04:18:09 PM 41.2406 -86.6319 256° West 136 157 8,000  Level Chicago Center
Thu 04:19:11 PM 41.2317 -86.6814 257° West 138 159 8,000  Level Chicago Center
Thu 04:20:13 PM 41.2228 -86.7281 256° West 138 159 8,000  Level Chicago Center
Thu 04:21:16 PM 41.2111 -86.7881 256° West 139 160 8,000  Level Chicago Center
Thu 04:22:18 PM 41.2025 -86.8372 257° West 138 159 8,000  Level Chicago Center
Thu 04:23:20 PM 41.1925 -86.8878 255° West 140 161 8,000  Level Chicago Center
Thu 04:24:22 PM 41.1836 -86.9369 257° West 139 160 8,000 -48 Level Chicago Center
Thu 04:25:24 PM 41.1889 -86.9833 279° West 131 151 7,900 -48 Descending Chicago Center
Thu 04:26:26 PM 41.1947 -87.0306 279° West 130 150 7,900 48 Level Chicago Center
Thu 04:27:28 PM 41.2008 -87.0886 278° West 132 152 8,000 48 Climbing Chicago Center
Thu 04:28:30 PM 41.2086 -87.1372 282° West 133 153 8,000  Level Chicago Center
Thu 04:29:32 PM 41.2147 -87.1861 279° West 134 154 8,000 -48 Level Chicago Center
Thu 04:30:34 PM 41.2208 -87.2350 279° West 134 154 7,900  Descending Chicago Center
Thu 04:31:36 PM 41.2275 -87.2833 280° West 135 155 8,000  Climbing Chicago Center
Thu 04:32:39 PM 41.2331 -87.3322 279° West 134 154 7,900 -48 Descending Chicago Center
Thu 04:33:41 PM 41.2419 -87.3911 281° West 135 155 7,900 48 Level Chicago Center
Thu 04:34:43 PM 41.2481 -87.4397 280° West 134 154 8,000  Climbing Chicago Center
Thu 04:35:45 PM 41.2556 -87.4892 281° West 136 157 7,900  Descending Chicago Center
Thu 04:36:47 PM 41.2611 -87.5383 279° West 135 155 8,000  Climbing Chicago Center
Thu 04:37:49 PM 41.2669 -87.5878 279° West 135 155 7,900 -48 Descending Chicago Center
Thu 04:38:51 PM 41.2736 -87.6364 280° West 135 155 7,900  Level Chicago Center
Thu 04:39:53 PM 41.2811 -87.6947 280° West 133 153 7,900  Level Chicago Center
Thu 04:40:55 PM 41.2875 -87.7419 280° West 132 152 7,900 48 Level Chicago Center
Thu 04:41:57 PM 41.2939 -87.7914 280° West 134 154 8,000 48 Climbing Chicago Center
Thu 04:42:59 PM 41.3003 -87.8394 280° West 133 153 8,000 48 Level Chicago Center
Thu 04:44:02 PM 41.3061 -87.8867 279° West 131 151 8,100 48 Climbing Chicago Center
Thu 04:45:04 PM 41.3119 -87.9336 279° West 129 148 8,100  Level Chicago Center
Thu 04:46:06 PM 41.3194 -87.9917 280° West 132 152 8,100  Level Chicago Center
Thu 04:47:08 PM 41.3256 -88.0400 280° West 131 151 8,100 -48 Level Chicago Center
Thu 04:48:10 PM 41.3314 -88.0883 279° West 131 151 8,000 -48 Descending Chicago Center
Thu 04:49:12 PM 41.3375 -88.1372 279° West 132 152 8,000 48 Level Chicago Center
Thu 04:50:14 PM 41.3431 -88.1856 279° West 132 152 8,100 48 Climbing Chicago Center
Thu 04:51:16 PM 41.3489 -88.2356 279° West 134 154 8,100  Level Chicago Center
Thu 04:52:18 PM 41.3547 -88.2831 279° West 133 153 8,100 -48 Level Chicago Center
Thu 04:53:20 PM 41.3622 -88.3431 279° West 135 155 8,000 -48 Descending Chicago Center
Thu 04:54:23 PM 41.3681 -88.3931 279° West 136 157 8,000  Level Chicago Center
Thu 04:55:25 PM 41.3739 -88.4417 279° West 135 155 8,000 48 Level Chicago Center
Thu 04:56:27 PM 41.3797 -88.4914 279° West 135 155 8,100  Climbing Chicago Center
Thu 04:57:29 PM 41.3878 -88.5386 283° West 133 153 8,000 -48 Descending Chicago Center
Thu 04:58:31 PM 41.4089 -88.5806 304° West 134 154 8,000  Level Chicago Center
Thu 04:59:33 PM 41.4311 -88.6311 300° West 134 154 8,000  Level Chicago Center
Thu 05:00:35 PM 41.4497 -88.6747 300° West 134 154 8,000 48 Level Chicago Center
Thu 05:01:37 PM 41.4681 -88.7172 300° West 134 154 8,100 48 Climbing Chicago Center
Thu 05:02:39 PM 41.4864 -88.7594 300° West 133 153 8,100  Level Chicago Center
Thu 05:03:41 PM 41.5053 -88.8011 301° West 132 152 8,100  Level Chicago Center
Thu 05:04:44 PM 41.5275 -88.8514 301° West 132 152 8,100  Level Chicago Center
Thu 05:05:46 PM 41.5461 -88.8933 301° West 132 152 8,100  Level Chicago Center
Thu 05:07:50 PM 41.5914 -88.9653 North 137 158 8,100 -32 Level Chicago Center
Thu 05:08:52 PM 41.6350 -88.9522 13° North 152 175 8,000 -48 Descending Chicago Center
Thu 05:09:54 PM 41.6778 -88.9425 10° North 156 180 8,000  Level Chicago Center
Thu 05:10:56 PM 41.7300 -88.9367 North 157 181 8,000 48 Level Chicago Center
Thu 05:11:58 PM 41.7750 -88.9308 North 159 183 8,100 48 Climbing Chicago Center
Thu 05:13:00 PM 41.8169 -88.9244 North 156 180 8,100  Level Chicago Center
Thu 05:14:02 PM 41.8586 -88.9186 North 153 176 8,100 -48 Level Chicago Center
Thu 05:15:05 PM 41.8997 -88.9128 North 151 174 8,000 -48 Descending Chicago Center
Thu 05:16:07 PM 41.9431 -88.9061 North 153 176 8,000  Level Chicago Center
Thu 05:17:09 PM 41.9939 -88.8992 North 154 177 8,000  Level Chicago Center
Thu 05:18:11 PM 42.0378 -88.8922 North 155 178 8,000  Level Chicago Center
Thu 05:19:13 PM 42.0811 -88.8856 North 156 180 8,000  Level Chicago Center
Thu 05:20:15 PM 42.1250 -88.8789 North 157 181 8,000  Level Chicago Center
Thu 05:21:17 PM 42.1664 -88.8747 North 155 178 8,000  Level Chicago Center
Thu 05:22:19 PM 42.2086 -88.8661 North 153 176 8,000  Level Chicago Center
Thu 05:23:22 PM 42.2592 -88.8603 North 151 174 8,000  Level Chicago Center
Thu 05:24:24 PM 42.2997 -88.8558 North 149 171 8,000  Level Chicago Center
Thu 05:25:26 PM 42.3406 -88.8497 North 149 171 8,000  Level Chicago Center
Thu 05:26:28 PM 42.3831 -88.8431 North 150 173 8,000  Level Chicago Center
Thu 05:27:30 PM 42.4253 -88.8364 North 152 175 8,000 -48 Level Chicago Center
Thu 05:28:32 PM 42.4764 -88.8281 North 153 176 7,900 -290 Descending Chicago Center
Thu 05:29:34 PM 42.5214 -88.8222 North 158 182 7,400 -435 Descending Chicago Center
Thu 05:30:36 PM 42.5686 -88.8147 North 163 188 7,000 -387 Descending Chicago Center
Thu 05:31:38 PM 42.6153 -88.8067 North 166 191 6,600 -435 Descending Chicago Center
Thu 05:32:40 PM 42.6625 -88.8025 North 169 194 6,100 -484 Descending Chicago Center
Thu 05:33:42 PM 42.7089 -88.7950 North 168 193 5,600 -484 Descending Chicago Center
Thu 05:34:44 PM 42.7678 -88.7839 North 176 203 5,100 -339 Descending Chicago Center
Thu 05:35:46 PM 42.8156 -88.7767 North 176 203 4,900 -48 Descending Chicago Center
Thu 05:36:49 PM 42.8611 -88.7697 North 170 196 5,000 48 Climbing Chicago Center
Thu 05:37:51 PM 42.9061 -88.7631 North 166 191 5,000 -242 Level Chicago Center
Thu 05:38:53 PM 42.9522 -88.7558 North 165 190 4,500 -532 Descending Chicago Center
Thu 05:39:55 PM 43.0017 -88.7489 North 171 197 3,900 -581 Descending Chicago Center
Thu 05:41:00 PM 43.0682 -88.7326 10° North  Level FlightAware Approximate
Thu 05:48:00 PM 43.1667 -88.7167 North  Level FlightAware Approximate
Thu 05:49:00 PM 43.1696 -88.7232 North  Level Estimated
Thu 05:50:00 PM 43.1667 -88.7167 North  Level FlightAware Approximate

Login

Don't have an account? Register now (free) for customized features, flight alerts, and more!